Terminal Aerodrome Forecast
Issued by NWS Louisville, KY

Home | Current Version | Previous Version | Text Only | Print | Product List | Glossary On
Versions: 1 2 3 4 5 6 7 8 9 10 11 12 13 14 15 16 17 18 19 20 21 22 23 24 25
000
FTUS43 KLMK 242320
TAFBWG
TAF
KBWG 242320Z 2500/2524 23007KT P6SM BKN080
     FM250100 19004KT P6SM BKN080
     FM250400 18003KT P6SM VCSH BKN060
     FM251200 20006KT P6SM BKN080
     FM251500 20011KT P6SM SCT060 BKN250=

USA.gov is the U.S. government's official web portal to all federal, state and local government web resources and services.